Maldives Meteorological Service

SYNOP

Station Code SYNOP
43555
AAXX 18004 43555 12462 62507 10284 20239 30098 40100 60002 82232 333 59005 70000 82818 85078=
43533
AAXX 18004 43533 11459 51803 10265 20248 30094 40096 60032 70522 82242 333 59001 70003 82818 84362=
43577
AAXX 18004 43577 11462 32507 10272 20248 30103 40105 60022 72581 82232 333 59001 70004 82818=
43588
AAXX 18004 43588 11465 52710 10265 20243 30102 40103 60162 70282 82232 333 59002 70016 82818 83077=
43599
AAXX 18004 43599 12460 42907 10273 20232 30102 40104 60002 82201 333 59005 70000 82818 83076=
Last Updated : 2018-11-18 05:00:30